Station Historical Data
Daily Summary for January 28, 2017 Units:  English    Metric   Both
Next Day »
Daily Weekly Monthly Yearly Custom
  High: Low: Average:
Temperature: 54.3 °F 34.0 °F 42.8 °F
Dew Point: 41.7 °F 30.0 °F 35.2 °F
Humidity: 92% 48% 76%
Wind Speed: 12.0mph 0.0mph 0.6mph
Wind Gust: 20.0mph - -
Wind- - SE
Pressure: 30.68 in 30.58 in -
Precipitation: 0.00 in    
Historical Graphs
 
 
Tabular Data for January 28, 2017
Time Temperature Dew Point Pressure Wind Wind Speed Wind Gust Humidity Rainfall Rate (Hourly) solar Conditions
00:04 34.9 °F 32.8 °F 30.67 in Calm     92% 0.00 in 0.00 W/m2
00:09 35.0 °F 32.9 °F 30.67 in Calm     92% 0.00 in 0.00 W/m2
00:14 35.0 °F 32.6 °F 30.66 in Calm     91% 0.00 in 0.00 W/m2
00:19 35.0 °F 32.6 °F 30.66 in Calm     91% 0.00 in 0.00 W/m2
00:24 35.0 °F 32.6 °F 30.67 in Calm     91% 0.00 in 0.00 W/m2
00:29 34.9 °F 32.5 °F 30.67 in Calm     91% 0.00 in 0.00 W/m2
00:34 34.9 °F 32.5 °F 30.67 in Calm     91% 0.00 in 0.00 W/m2
00:39 34.9 °F 32.5 °F 30.67 in Calm     91% 0.00 in 0.00 W/m2
00:44 35.0 °F 32.6 °F 30.67 in Calm     91% 0.00 in 0.00 W/m2
00:49 35.0 °F 32.4 °F 30.67 in Calm     90% 0.00 in 0.00 W/m2
00:54 35.1 °F 32.5 °F 30.67 in Calm     90% 0.00 in 0.00 W/m2
00:59 35.2 °F 32.6 °F 30.67 in Calm     90% 0.00 in 0.00 W/m2
01:04 35.3 °F 32.7 °F 30.67 in Calm     90% 0.00 in 0.00 W/m2
01:09 35.3 °F 32.7 °F 30.67 in Calm     90% 0.00 in 0.00 W/m2
01:14 35.3 °F 32.4 °F 30.67 in North 1.0 mph 1.0 mph 89% 0.00 in 0.00 W/m2
01:19 35.3 °F 32.4 °F 30.67 in North 1.0 mph 3.0 mph 89% 0.00 in 0.00 W/m2
01:24 35.3 °F 32.4 °F 30.67 in North 1.0 mph 2.0 mph 89% 0.00 in 0.00 W/m2
01:29 35.2 °F 32.3 °F 30.67 in North 1.0 mph 2.0 mph 89% 0.00 in 0.00 W/m2
01:35 35.2 °F 32.3 °F 30.67 in Calm   3.0 mph 89% 0.00 in 0.00 W/m2
01:40 35.3 °F 32.4 °F 30.66 in Calm     89% 0.00 in 0.00 W/m2
01:45 35.3 °F 32.1 °F 30.66 in Calm     88% 0.00 in 0.00 W/m2
01:50 35.4 °F 32.2 °F 30.66 in Calm     88% 0.00 in 0.00 W/m2
01:55 35.2 °F 32.0 °F 30.66 in Calm     88% 0.00 in 0.00 W/m2
02:00 35.1 °F 32.2 °F 30.66 in Calm     89% 0.00 in 0.00 W/m2
02:05 35.1 °F 32.2 °F 30.66 in Calm     89% 0.00 in 0.00 W/m2
02:10 35.0 °F 32.1 °F 30.66 in Calm     89% 0.00 in 0.00 W/m2
02:15 35.0 °F 32.1 °F 30.66 in Calm     89% 0.00 in 0.00 W/m2
02:20 35.0 °F 32.1 °F 30.66 in Calm     89% 0.00 in 0.00 W/m2
02:25 34.9 °F 32.0 °F 30.66 in Calm     89% 0.00 in 0.00 W/m2
02:30 34.8 °F 31.9 °F 30.66 in Calm     89% 0.00 in 0.00 W/m2
02:35 34.8 °F 31.9 °F 30.65 in Calm     89% 0.00 in 0.00 W/m2
02:40 34.7 °F 31.8 °F 30.65 in Calm     89% 0.00 in 0.00 W/m2
02:45 34.7 °F 31.8 °F 30.65 in Calm     89% 0.00 in 0.00 W/m2
02:55 34.6 °F 31.7 °F 30.64 in Calm     89% 0.00 in 0.00 W/m2
03:00 34.6 °F 31.7 °F 30.64 in Calm     89% 0.00 in 0.00 W/m2
03:05 34.5 °F 31.6 °F 30.64 in Calm     89% 0.00 in 0.00 W/m2
03:10 34.4 °F 31.5 °F 30.64 in Calm     89% 0.00 in 0.00 W/m2
03:15 34.3 °F 31.1 °F 30.63 in Calm     88% 0.00 in 0.00 W/m2
03:20 34.2 °F 31.0 °F 30.64 in Calm     88% 0.00 in 0.00 W/m2
03:25 34.1 °F 30.6 °F 30.63 in Calm     87% 0.00 in 0.00 W/m2
03:30 34.2 °F 30.7 °F 30.63 in Calm     87% 0.00 in 0.00 W/m2
03:35 34.2 °F 30.7 °F 30.63 in Calm     87% 0.00 in 0.00 W/m2
03:40 34.3 °F 30.8 °F 30.63 in Calm     87% 0.00 in 0.00 W/m2
03:45 34.4 °F 31.2 °F 30.64 in Calm     88% 0.00 in 0.00 W/m2
03:50 34.5 °F 31.6 °F 30.64 in Calm     89% 0.00 in 0.00 W/m2
03:55 34.8 °F 31.9 °F 30.64 in Calm     89% 0.00 in 0.00 W/m2
04:00 35.0 °F 32.1 °F 30.64 in Calm     89% 0.00 in 0.00 W/m2
04:10 35.1 °F 32.2 °F 30.64 in Calm     89% 0.00 in 0.00 W/m2
04:15 35.1 °F 32.2 °F 30.65 in Calm     89% 0.00 in 0.00 W/m2
04:20 35.1 °F 32.5 °F 30.65 in Calm     90% 0.00 in 0.00 W/m2
04:25 35.1 °F 32.5 °F 30.65 in Calm     90% 0.00 in 0.00 W/m2
04:30 35.1 °F 32.5 °F 30.65 in Calm     90% 0.00 in 0.00 W/m2
04:35 35.1 °F 32.5 °F 30.66 in Calm     90% 0.00 in 0.00 W/m2
04:40 35.1 °F 32.5 °F 30.66 in Calm   1.0 mph 90% 0.00 in 0.00 W/m2
04:45 35.1 °F 32.5 °F 30.66 in Calm     90% 0.00 in 0.00 W/m2
04:50 35.1 °F 32.5 °F 30.66 in Calm     90% 0.00 in 0.00 W/m2
04:56 35.0 °F 32.4 °F 30.66 in Calm     90% 0.00 in 0.00 W/m2
05:01 34.9 °F 32.3 °F 30.67 in Calm     90% 0.00 in 0.00 W/m2
05:06 34.9 °F 32.3 °F 30.67 in Calm     90% 0.00 in 0.00 W/m2
05:11 34.9 °F 32.3 °F 30.67 in Calm     90% 0.00 in 0.00 W/m2
05:16 34.9 °F 32.3 °F 30.67 in North 1.0 mph 5.0 mph 90% 0.00 in 0.00 W/m2
05:21 35.0 °F 32.4 °F 30.67 in North 1.0 mph 4.0 mph 90% 0.00 in 0.00 W/m2
05:26 35.0 °F 32.4 °F 30.67 in North 2.0 mph 5.0 mph 90% 0.00 in 0.00 W/m2
05:31 35.0 °F 32.4 °F 30.66 in Calm   4.0 mph 90% 0.00 in 0.00 W/m2
05:36 34.9 °F 32.0 °F 30.66 in Calm     89% 0.00 in 0.00 W/m2
05:41 34.7 °F 31.8 °F 30.66 in Calm     89% 0.00 in 0.00 W/m2
05:46 34.7 °F 31.8 °F 30.67 in Calm     89% 0.00 in 0.00 W/m2
05:51 34.6 °F 31.7 °F 30.67 in Calm     89% 0.00 in 0.00 W/m2
05:56 34.6 °F 31.7 °F 30.67 in Calm     89% 0.00 in 0.00 W/m2
06:01 34.5 °F 31.6 °F 30.67 in Calm     89% 0.00 in 0.00 W/m2
06:06 34.5 °F 31.6 °F 30.67 in Calm     89% 0.00 in 0.00 W/m2
06:11 34.4 °F 31.5 °F 30.67 in Calm     89% 0.00 in 0.00 W/m2
06:16 34.4 °F 31.5 °F 30.67 in Calm     89% 0.00 in 0.00 W/m2
06:21 34.3 °F 31.4 °F 30.67 in Calm   2.0 mph 89% 0.00 in 0.00 W/m2
06:26 34.2 °F 31.0 °F 30.67 in Calm     88% 0.00 in 0.00 W/m2
06:31 34.2 °F 31.0 °F 30.67 in Calm   4.0 mph 88% 0.00 in 0.00 W/m2
06:36 34.1 °F 30.9 °F 30.67 in Calm   8.0 mph 88% 0.00 in 0.00 W/m2
06:41 34.1 °F 30.9 °F 30.66 in East 1.0 mph 8.0 mph 88% 0.00 in 0.00 W/m2
06:46 34.0 °F 30.8 °F 30.66 in ESE 2.0 mph 9.0 mph 88% 0.00 in 0.00 W/m2
06:51 34.0 °F 30.8 °F 30.66 in ESE 5.0 mph 6.0 mph 88% 0.00 in 0.00 W/m2
06:56 34.0 °F 30.5 °F 30.66 in ESE 4.0 mph 14.0 mph 87% 0.00 in 0.00 W/m2
07:01 34.0 °F 30.5 °F 30.66 in Calm   17.0 mph 87% 0.00 in 0.00 W/m2
07:06 34.1 °F 30.6 °F 30.66 in East 5.0 mph 14.0 mph 87% 0.00 in 5.00 W/m2
07:11 34.2 °F 30.7 °F 30.66 in Calm   15.0 mph 87% 0.00 in 5.00 W/m2
07:16 34.4 °F 30.6 °F 30.66 in Calm   15.0 mph 86% 0.00 in 7.00 W/m2
07:21 34.6 °F 30.6 °F 30.66 in Calm   16.0 mph 85% 0.00 in 9.00 W/m2
07:26 34.7 °F 30.7 °F 30.66 in Calm   11.0 mph 85% 0.00 in 12.00 W/m2
07:31 34.9 °F 30.6 °F 30.66 in Calm   12.0 mph 84% 0.00 in 16.00 W/m2
07:41 35.2 °F 30.6 °F 30.66 in ESE 9.0 mph 16.0 mph 83% 0.00 in 26.00 W/m2
07:46 35.3 °F 30.4 °F 30.66 in ESE 12.0 mph 16.0 mph 82% 0.00 in 21.00 W/m2
07:51 35.5 °F 30.6 °F 30.66 in Calm   18.0 mph 82% 0.00 in 35.00 W/m2
07:56 35.6 °F 30.4 °F 30.66 in ESE 5.0 mph 20.0 mph 81% 0.00 in 53.00 W/m2
08:01 35.8 °F 30.2 °F 30.66 in Calm   16.0 mph 80% 0.00 in 58.00 W/m2
08:06 36.0 °F 30.4 °F 30.66 in ESE 7.0 mph 16.0 mph 80% 0.00 in 53.00 W/m2
08:11 36.2 °F 30.0 °F 30.66 in ESE 2.0 mph 15.0 mph 78% 0.00 in 114.00 W/m2
08:16 36.5 °F 30.6 °F 30.66 in Calm   13.0 mph 79% 0.00 in 77.00 W/m2
08:21 36.8 °F 30.6 °F 30.66 in ESE 7.0 mph 20.0 mph 78% 0.00 in 134.00 W/m2
08:26 37.1 °F 30.9 °F 30.67 in ESE 8.0 mph 16.0 mph 78% 0.00 in 183.00 W/m2
08:31 37.4 °F 31.2 °F 30.67 in Calm   15.0 mph 78% 0.00 in 190.00 W/m2
08:41 37.9 °F 31.0 °F 30.67 in ESE 11.0 mph 14.0 mph 76% 0.00 in 246.00 W/m2
08:46 38.3 °F 31.7 °F 30.67 in ESE 4.0 mph 14.0 mph 77% 0.00 in 257.00 W/m2
08:51 38.6 °F 31.7 °F 30.67 in ENE 2.0 mph 15.0 mph 76% 0.00 in 283.00 W/m2
08:56 38.9 °F 32.0 °F 30.67 in ESE 1.0 mph 1.0 mph 76% 0.00 in 304.00 W/m2
09:01 39.2 °F 32.0 °F 30.67 in East 4.0 mph 4.0 mph 75% 0.00 in 323.00 W/m2
09:06 39.5 °F 32.2 °F 30.67 in East 4.0 mph 9.0 mph 75% 0.00 in 339.00 W/m2
09:11 39.8 °F 32.5 °F 30.67 in ESE 1.0 mph 9.0 mph 75% 0.00 in 353.00 W/m2
09:16 40.1 °F 32.5 °F 30.68 in Calm   7.0 mph 74% 0.00 in 360.00 W/m2
09:21 40.4 °F 32.8 °F 30.68 in Calm   6.0 mph 74% 0.00 in 378.00 W/m2
09:23 40.6 °F 33.0 °F 30.68 in Calm   4.0 mph 74% 0.00 in 380.00 W/m2
09:28 41.0 °F 33.7 °F 30.68 in Calm   2.0 mph 75% 0.00 in 378.00 W/m2
09:33 41.4 °F 34.1 °F 30.68 in ESE 2.0 mph 5.0 mph 75% 0.00 in 383.00 W/m2
09:38 41.7 °F 34.4 °F 30.68 in Calm   5.0 mph 75% 0.00 in 410.00 W/m2
09:43 42.1 °F 34.4 °F 30.68 in Calm   6.0 mph 74% 0.00 in 422.00 W/m2
09:48 42.5 °F 34.8 °F 30.68 in Calm   5.0 mph 74% 0.00 in 436.00 W/m2
09:53 42.9 °F 35.2 °F 30.68 in ESE 1.0 mph 4.0 mph 74% 0.00 in 448.00 W/m2
09:58 43.4 °F 35.3 °F 30.68 in ESE 2.0 mph 5.0 mph 73% 0.00 in 461.00 W/m2
10:03 43.8 °F 36.1 °F 30.67 in East 6.0 mph 7.0 mph 74% 0.00 in 471.00 W/m2
10:08 44.2 °F 35.8 °F 30.67 in East 1.0 mph 4.0 mph 72% 0.00 in 480.00 W/m2
10:13 44.6 °F 36.5 °F 30.67 in ESE 1.0 mph 5.0 mph 73% 0.00 in 492.00 W/m2
10:18 45.0 °F 35.1 °F 30.67 in SE 5.0 mph 7.0 mph 68% 0.00 in 501.00 W/m2
10:23 45.4 °F 35.1 °F 30.67 in ESE 4.0 mph 6.0 mph 67% 0.00 in 510.00 W/m2
10:28 46.0 °F 35.3 °F 30.66 in ESE 4.0 mph 6.0 mph 66% 0.00 in 519.00 W/m2
10:33 46.6 °F 34.7 °F 30.66 in Calm   4.0 mph 63% 0.00 in 527.00 W/m2
10:38 47.2 °F 34.5 °F 30.66 in ESE 1.0 mph 5.0 mph 61% 0.00 in 538.00 W/m2
10:43 47.7 °F 34.1 °F 30.66 in ESE 1.0 mph 4.0 mph 59% 0.00 in 545.00 W/m2
10:48 48.3 °F 35.1 °F 30.66 in Calm   5.0 mph 60% 0.00 in 552.00 W/m2
10:53 48.7 °F 34.2 °F 30.66 in ESE 1.0 mph 1.0 mph 57% 0.00 in 548.00 W/m2
10:58 49.1 °F 30.3 °F 30.66 in ESE 2.0 mph 4.0 mph 48% 0.00 in 561.00 W/m2
11:03 49.5 °F 30.6 °F 30.66 in Calm   1.0 mph 48% 0.00 in 570.00 W/m2
11:08 50.0 °F 33.1 °F 30.66 in ESE 1.0 mph 2.0 mph 52% 0.00 in 577.00 W/m2
11:13 50.3 °F 32.4 °F 30.65 in Calm   1.0 mph 50% 0.00 in 585.00 W/m2
11:18 50.6 °F 34.1 °F 30.65 in Calm   1.0 mph 53% 0.00 in 582.00 W/m2
11:23 50.9 °F 33.9 °F 30.65 in ESE 1.0 mph 2.0 mph 52% 0.00 in 587.00 W/m2
11:28 51.2 °F 35.1 °F 30.65 in Calm   1.0 mph 54% 0.00 in 584.00 W/m2
11:33 51.5 °F 35.0 °F 30.65 in Calm   1.0 mph 53% 0.00 in 603.00 W/m2
11:38 51.7 °F 32.7 °F 30.64 in Calm     48% 0.00 in 613.00 W/m2
11:43 52.1 °F 35.0 °F 30.64 in Calm     52% 0.00 in 606.00 W/m2
11:48 52.4 °F 39.4 °F 30.64 in East 1.0 mph 2.0 mph 61% 0.00 in 605.00 W/m2
11:53 52.2 °F 38.3 °F 30.64 in North 1.0 mph 2.0 mph 59% 0.00 in 608.00 W/m2
11:58 52.0 °F 39.4 °F 30.63 in Calm   1.0 mph 62% 0.00 in 613.00 W/m2
12:03 51.8 °F 38.8 °F 30.63 in Calm     61% 0.00 in 619.00 W/m2
12:08 51.8 °F 39.6 °F 30.63 in Calm     63% 0.00 in 624.00 W/m2
12:13 51.7 °F 39.9 °F 30.62 in East 2.0 mph 2.0 mph 64% 0.00 in 621.00 W/m2
12:18 51.7 °F 39.1 °F 30.62 in Calm     62% 0.00 in 628.00 W/m2
12:23 51.8 °F 37.9 °F 30.62 in Calm     59% 0.00 in 624.00 W/m2
12:24 51.8 °F 37.9 °F 30.62 in Calm     59% 0.00 in 624.00 W/m2
12:29 52.2 °F 38.8 °F 30.62 in Calm     60% 0.00 in 594.00 W/m2
12:34 52.6 °F 38.3 °F 30.61 in Calm   1.0 mph 58% 0.00 in 626.00 W/m2
12:39 52.8 °F 38.9 °F 30.61 in East 2.0 mph 2.0 mph 59% 0.00 in 626.00 W/m2
12:49 53.1 °F 39.6 °F 30.61 in Calm   1.0 mph 60% 0.00 in 621.00 W/m2
12:54 53.4 °F 39.0 °F 30.61 in NNE 1.0 mph 1.0 mph 58% 0.00 in 608.00 W/m2
12:59 53.8 °F 38.5 °F 30.60 in Calm   1.0 mph 56% 0.00 in 584.00 W/m2
13:04 54.1 °F 40.1 °F 30.60 in Calm   1.0 mph 59% 0.00 in 612.00 W/m2
13:09 54.1 °F 38.8 °F 30.59 in Calm   1.0 mph 56% 0.00 in 592.00 W/m2
13:14 54.1 °F 37.8 °F 30.59 in NW 2.0 mph 2.0 mph 54% 0.00 in 585.00 W/m2
13:19 54.3 °F 37.5 °F 30.59 in NW 1.0 mph 1.0 mph 53% 0.00 in 561.00 W/m2
13:24 54.3 °F 38.5 °F 30.59 in NW 1.0 mph 2.0 mph 55% 0.00 in 548.00 W/m2
13:29 54.2 °F 36.5 °F 30.59 in Calm   1.0 mph 51% 0.00 in 577.00 W/m2
13:34 54.0 °F 37.3 °F 30.59 in Calm   1.0 mph 53% 0.00 in 555.00 W/m2
13:39 53.8 °F 37.1 °F 30.59 in Calm   2.0 mph 53% 0.00 in 541.00 W/m2
13:44 53.7 °F 37.5 °F 30.59 in Calm   1.0 mph 54% 0.00 in 536.00 W/m2
13:49 53.6 °F 37.4 °F 30.59 in WNW 1.0 mph 2.0 mph 54% 0.00 in 527.00 W/m2
13:54 53.6 °F 39.2 °F 30.59 in Calm   1.0 mph 58% 0.00 in 515.00 W/m2
13:59 53.4 °F 37.7 °F 30.59 in Calm   1.0 mph 55% 0.00 in 524.00 W/m2
14:04 53.4 °F 37.2 °F 30.59 in Calm   1.0 mph 54% 0.00 in 499.00 W/m2
14:09 53.5 °F 38.7 °F 30.59 in NW 1.0 mph 1.0 mph 57% 0.00 in 482.00 W/m2
14:14 53.5 °F 38.2 °F 30.59 in Calm   2.0 mph 56% 0.00 in 492.00 W/m2
14:19 53.6 °F 37.8 °F 30.58 in Calm   1.0 mph 55% 0.00 in 487.00 W/m2
14:24 53.7 °F 37.5 °F 30.59 in Calm   2.0 mph 54% 0.00 in 485.00 W/m2
14:29 53.7 °F 36.5 °F 30.59 in NW 1.0 mph 2.0 mph 52% 0.00 in 468.00 W/m2
14:34 53.8 °F 37.1 °F 30.58 in NW 1.0 mph 1.0 mph 53% 0.00 in 466.00 W/m2
14:39 53.8 °F 37.1 °F 30.58 in Calm   1.0 mph 53% 0.00 in 443.00 W/m2
14:44 53.7 °F 37.0 °F 30.58 in Calm   1.0 mph 53% 0.00 in 432.00 W/m2
14:49 53.7 °F 37.0 °F 30.58 in Calm   1.0 mph 53% 0.00 in 418.00 W/m2
14:54 53.6 °F 36.9 °F 30.58 in Calm     53% 0.00 in 410.00 W/m2
14:59 53.5 °F 36.8 °F 30.58 in Calm     53% 0.00 in 396.00 W/m2
15:04 53.5 °F 38.7 °F 30.58 in Calm   1.0 mph 57% 0.00 in 381.00 W/m2
15:09 53.3 °F 38.5 °F 30.58 in Calm   1.0 mph 57% 0.00 in 366.00 W/m2
15:19 53.2 °F 36.5 °F 30.58 in Calm     53% 0.00 in 336.00 W/m2
15:24 53.3 °F 36.1 °F 30.58 in Calm     52% 0.00 in 320.00 W/m2
15:29 53.5 °F 37.3 °F 30.58 in Calm     54% 0.00 in 308.00 W/m2
15:34 53.4 °F 37.2 °F 30.58 in Calm     54% 0.00 in 294.00 W/m2
15:39 53.3 °F 38.0 °F 30.58 in Calm   1.0 mph 56% 0.00 in 278.00 W/m2
15:44 53.3 °F 38.5 °F 30.58 in Calm     57% 0.00 in 260.00 W/m2
15:49 53.4 °F 39.5 °F 30.58 in Calm   1.0 mph 59% 0.00 in 239.00 W/m2
15:54 53.4 °F 39.9 °F 30.58 in Calm     60% 0.00 in 206.00 W/m2
15:59 53.3 °F 40.2 °F 30.58 in Calm   1.0 mph 61% 0.00 in 204.00 W/m2
16:04 53.1 °F 40.0 °F 30.58 in Calm     61% 0.00 in 186.00 W/m2
16:09 52.9 °F 41.1 °F 30.58 in Calm     64% 0.00 in 172.00 W/m2
16:15 52.6 °F 40.8 °F 30.58 in Calm     64% 0.00 in 156.00 W/m2
16:20 52.3 °F 40.9 °F 30.58 in Calm     65% 0.00 in 135.00 W/m2
16:25 52.2 °F 41.2 °F 30.59 in Calm     66% 0.00 in 116.00 W/m2
16:30 51.9 °F 41.3 °F 30.59 in Calm     67% 0.00 in 98.00 W/m2
16:35 51.5 °F 41.3 °F 30.59 in Calm     68% 0.00 in 79.00 W/m2
16:40 51.3 °F 41.1 °F 30.59 in Calm     68% 0.00 in 60.00 W/m2
16:45 51.0 °F 41.2 °F 30.59 in Calm     69% 0.00 in 49.00 W/m2
16:50 50.7 °F 41.7 °F 30.59 in Calm     71% 0.00 in 35.00 W/m2
16:55 50.3 °F 41.6 °F 30.59 in Calm     72% 0.00 in 30.00 W/m2
17:00 49.9 °F 41.2 °F 30.59 in Calm     72% 0.00 in 23.00 W/m2
17:05 49.5 °F 41.6 °F 30.59 in Calm     74% 0.00 in 19.00 W/m2
17:10 49.1 °F 41.2 °F 30.59 in Calm     74% 0.00 in 16.00 W/m2
17:15 48.6 °F 41.0 °F 30.59 in Calm     75% 0.00 in 12.00 W/m2
17:20 48.2 °F 41.0 °F 30.59 in Calm     76% 0.00 in 9.00 W/m2
17:25 47.8 °F 40.6 °F 30.58 in Calm     76% 0.00 in 5.00 W/m2
17:30 47.4 °F 40.9 °F 30.58 in Calm     78% 0.00 in 5.00 W/m2
17:35 47.0 °F 40.5 °F 30.58 in Calm     78% 0.00 in 0.00 W/m2
17:40 46.7 °F 40.5 °F 30.58 in Calm     79% 0.00 in 0.00 W/m2
17:45 46.3 °F 40.2 °F 30.58 in Calm     79% 0.00 in 0.00 W/m2
17:50 46.0 °F 39.9 °F 30.58 in Calm     79% 0.00 in 0.00 W/m2
17:55 45.8 °F 40.0 °F 30.58 in Calm     80% 0.00 in 0.00 W/m2
18:00 45.6 °F 40.1 °F 30.58 in Calm     81% 0.00 in 0.00 W/m2
18:05 45.4 °F 39.9 °F 30.58 in Calm     81% 0.00 in 0.00 W/m2
18:10 45.2 °F 39.7 °F 30.58 in Calm     81% 0.00 in 0.00 W/m2
18:15 45.1 °F 39.9 °F 30.58 in Calm     82% 0.00 in 0.00 W/m2
18:20 45.1 °F 39.9 °F 30.58 in Calm     82% 0.00 in 0.00 W/m2
18:25 44.9 °F 39.4 °F 30.58 in Calm     81% 0.00 in 0.00 W/m2
18:35 44.7 °F 39.2 °F 30.58 in Calm     81% 0.00 in 0.00 W/m2
18:40 44.7 °F 39.2 °F 30.58 in Calm     81% 0.00 in 0.00 W/m2
18:45 44.6 °F 39.5 °F 30.58 in Calm     82% 0.00 in 0.00 W/m2
18:50 44.6 °F 39.1 °F 30.58 in Calm     81% 0.00 in 0.00 W/m2
18:55 44.5 °F 39.0 °F 30.58 in Calm     81% 0.00 in 0.00 W/m2
19:00 44.5 °F 39.0 °F 30.58 in Calm     81% 0.00 in 0.00 W/m2
19:05 44.5 °F 39.0 °F 30.58 in Calm     81% 0.00 in 0.00 W/m2
19:10 44.4 °F 38.6 °F 30.58 in Calm     80% 0.00 in 0.00 W/m2
19:20 44.4 °F 38.3 °F 30.58 in Calm     79% 0.00 in 0.00 W/m2
19:35 44.6 °F 38.8 °F 30.59 in Calm     80% 0.00 in 0.00 W/m2
19:40 44.6 °F 38.8 °F 30.59 in Calm     80% 0.00 in 0.00 W/m2
19:45 44.4 °F 38.9 °F 30.59 in Calm     81% 0.00 in 0.00 W/m2
19:50 44.2 °F 38.4 °F 30.59 in Calm     80% 0.00 in 0.00 W/m2
19:55 43.9 °F 38.8 °F 30.59 in Calm     82% 0.00 in 0.00 W/m2
20:00 43.7 °F 38.6 °F 30.59 in Calm     82% 0.00 in 0.00 W/m2
20:05 43.4 °F 38.3 °F 30.60 in Calm     82% 0.00 in 0.00 W/m2
20:10 43.2 °F 38.1 °F 30.60 in Calm     82% 0.00 in 0.00 W/m2
20:15 43.0 °F 38.2 °F 30.59 in Calm     83% 0.00 in 0.00 W/m2
20:20 42.7 °F 37.9 °F 30.59 in Calm     83% 0.00 in 0.00 W/m2
20:25 42.5 °F 38.0 °F 30.59 in Calm     84% 0.00 in 0.00 W/m2
20:30 42.3 °F 37.8 °F 30.59 in Calm     84% 0.00 in 0.00 W/m2
20:35 42.1 °F 37.6 °F 30.59 in Calm     84% 0.00 in 0.00 W/m2
20:40 41.9 °F 37.7 °F 30.59 in Calm     85% 0.00 in 0.00 W/m2
20:45 41.7 °F 37.5 °F 30.59 in Calm     85% 0.00 in 0.00 W/m2
20:50 41.6 °F 37.4 °F 30.59 in Calm     85% 0.00 in 0.00 W/m2
20:55 41.5 °F 37.3 °F 30.59 in Calm     85% 0.00 in 0.00 W/m2
21:00 41.5 °F 37.6 °F 30.59 in Calm     86% 0.00 in 0.00 W/m2
21:05 41.5 °F 37.3 °F 30.59 in Calm     85% 0.00 in 0.00 W/m2
21:11 41.4 °F 37.2 °F 30.59 in Calm     85% 0.00 in 0.00 W/m2
21:16 41.4 °F 37.2 °F 30.59 in Calm     85% 0.00 in 0.00 W/m2
21:21 41.4 °F 36.9 °F 30.59 in Calm     84% 0.00 in 0.00 W/m2
21:26 41.4 °F 36.9 °F 30.59 in Calm     84% 0.00 in 0.00 W/m2
21:31 41.4 °F 36.6 °F 30.59 in Calm     83% 0.00 in 0.00 W/m2
21:36 41.4 °F 36.6 °F 30.59 in Calm   4.0 mph 83% 0.00 in 0.00 W/m2
21:41 41.4 °F 36.3 °F 30.59 in Calm   3.0 mph 82% 0.00 in 0.00 W/m2
21:46 41.5 °F 36.4 °F 30.59 in Calm   3.0 mph 82% 0.00 in 0.00 W/m2
21:51 41.5 °F 36.4 °F 30.59 in East 1.0 mph 3.0 mph 82% 0.00 in 0.00 W/m2
Foresthill Weather
 WU-history PHP script courtesy of   Juneau County Weather.
powered by Cumulus v1.9.3 (1059)
Ambient Weather VWS v14.00
Top Contact Website Map Copyright © 2007 - 2018 Foresthillweather.com Never base important decisions on this or any weather information obtained from the Internet